Saturday, August 30, 2014, 12:26 AM EDT

KMUI, Muir Army Air Field / Indiantown

Location: Jonestown, PA, United States Lat: 40.433
Local Time: 12:26 AM EDT ( 4:26 GMT) Lon: -76.567
Time Zone: US/Eastern Elev: 488 ft

Show me the last for .
Show Decoded

2014-08-29 23:58 METAR KMUI 300358Z AUTO 05002KT 10SM CLR 13/13 A3023 RMK AO2 SLP238 T01310131 $
                 =
2014-08-29 22:58 METAR KMUI 300258Z AUTO 00000KT 10SM CLR 14/14 A3023 RMK AO2 SLP238 T01430142
                 52015 $ =
2014-08-29 21:58 METAR KMUI 300158Z AUTO 03001KT 10SM CLR 15/15 A3021 RMK AO2 SLP232 T01480146 $
                 =
2014-08-29 20:58 METAR KMUI 300058Z AUTO 02001KT 10SM CLR 16/14 A3020 RMK AO2 SLP229 T01570141 $
                 =
2014-08-29 19:58 METAR KMUI 292358Z AUTO 35002KT 10SM CLR 18/14 A3018 RMK AO2 SLP222 60000
                 T01770137 10247 20177 52005 $ =
2014-08-29 18:58 METAR KMUI 292258Z AUTO VRB01KT 10SM CLR 23/12 A3018 RMK AO2 SLP222 T02290118 $
                 =
2014-08-29 17:58 METAR KMUI 292158Z AUTO 10004KT 10SM CLR 24/11 A3018 RMK AO2 SLP221 T02410112 $
                 =
2014-08-29 16:58 METAR KMUI 292058Z AUTO 05007KT 10SM CLR 24/11 A3017 RMK AO2 SLP218 60000
                 T02430110 57010 $ =
2014-08-29 15:58 METAR KMUI 291958Z AUTO 22003KT 10SM CLR 25/11 A3017 RMK AO2 RAE1857 SLP217
                 P0000 T02450110 $ =
2014-08-29 14:58 METAR KMUI 291858Z AUTO 07001KT 10SM CLR 24/11 A3019 RMK AO2 RAB1848 SLP225
                 P0000 T02380106 $ =
2014-08-29 13:58 METAR KMUI 291758Z AUTO 23005KT 10SM FEW160 SCT200 23/10 A3020 RMK AO2 SLP228
                 60000 T02340103 10234 20131 57009 $ =
2014-08-29 12:58 METAR KMUI 291658Z AUTO 16007KT 10SM FEW150 23/10 A3020 RMK AO2 SLP228 T02250103
                 $ =
2014-08-29 11:58 METAR KMUI 291558Z COR VRB04KT 10SM FEW048 BKN250 22/10 A3022 RMK AO2A SLP234
                 T02180104 $ COR 1559 =
2014-08-29 10:58 METAR KMUI 291458Z AUTO VRB01KT 10SM CLR 21/11 A3022 RMK AO2 RAB1417E1445 SLP234
                 P0000 60000 T02090107 53004 $ =
2014-08-29 09:58 METAR KMUI 291358Z AUTO 03003KT 10SM CLR 19/11 A3022 RMK AO2 SLP235 T01930112 $
                 =
2014-08-29 08:58 METAR KMUI 291258Z AUTO 00000KT 10SM CLR 18/12 A3021 RMK AO2 RAB1216E1225 SLP231
                 P0000 T01750117 $ =
2014-08-29 07:58 METAR KMUI 291158Z AUTO 00000KT 10SM CLR 12/12 A3021 RMK AO2 SLP232 T01230118
                 10149 20100 52020 $ =
2014-08-29 06:58 METAR KMUI 291058Z AUTO 33001KT 10SM CLR 11/11 A3019 RMK AO2 SLP225 T01060105 $
                 =
2014-08-29 05:58 METAR KMUI 290958Z AUTO 18003KT 10SM CLR 11/11 A3017 RMK AO2 SLP218 T01120107 $
                 =
2014-08-29 04:58 METAR KMUI 290858Z AUTO VRB01KT 10SM CLR 13/10 A3015 RMK AO2 SLP211 T01250102
                 53005 $ =
2014-08-29 02:58 METAR KMUI 290658Z AUTO 01002KT 10SM CLR 13/10 A3013 RMK AO2 SLP204 T01320099 $
                 =
2014-08-29 01:58 METAR KMUI 290558Z AUTO VRB01KT 10SM CLR 14/09 A3014 RMK AO2 SLP208 T01410094
                 10206 20139 51008 $ =
2014-08-29 00:58 METAR KMUI 290458Z AUTO VRB04KT 10SM CLR 16/09 A3013 RMK AO2 SLP204 T01600092
                 402470159 $ =

Support USWX by starting your Amazon purchase here.